Time;durP1;ratioP1;P1;durP2;ratioP2;P2;SDS_P1;SDS_P2;PMS_P1;PMS_P2;Temp;Humidity;BMP_temperature;BMP_pressure;BME280_temperature;BME280_humidity;BME280_pressure;Samples;Min_cycle;Max_cycle;Signal;HPM_P1;HPM_P2
2023/05/07 00:02:12;;;;;;;20.17;10.27;;;;;;;9.92;100.00;97825.59;5093935;28;20031;-78
2023/05/07 00:04:38;;;;;;;17.58;9.88;;;;;;;9.79;100.00;97823.59;5093991;28;20474;-78
2023/05/07 00:07:04;;;;;;;19.30;9.80;;;;;;;9.78;100.00;97821.03;5094161;28;20031;-78
2023/05/07 00:09:30;;;;;;;20.75;10.10;;;;;;;9.79;100.00;97817.38;5093771;28;20042;-78
2023/05/07 00:11:55;;;;;;;20.90;9.20;;;;;;;9.74;100.00;97814.97;5111211;28;20491;-78
2023/05/07 00:14:20;;;;;;;21.90;9.85;;;;;;;9.81;100.00;97816.34;5093485;28;20066;-78
2023/05/07 00:16:46;;;;;;;19.83;9.77;;;;;;;9.82;100.00;97817.22;5093898;28;20031;-78
2023/05/07 00:19:12;;;;;;;17.52;10.10;;;;;;;9.81;100.00;97823.53;5093971;28;20024;-78
2023/05/07 00:21:37;;;;;;;20.65;10.50;;;;;;;9.81;100.00;97826.19;5093566;28;20023;-79
2023/05/07 00:24:03;;;;;;;17.85;10.82;;;;;;;9.91;100.00;97835.41;5093827;28;20039;-79
2023/05/07 00:26:29;;;;;;;20.42;11.38;;;;;;;9.93;100.00;97838.03;5093589;28;20062;-78
2023/05/07 00:28:54;;;;;;;16.55;10.48;;;;;;;9.83;100.00;97832.31;5110641;28;20050;-78
2023/05/07 00:31:20;;;;;;;20.88;10.50;;;;;;;9.78;100.00;97837.06;5093298;28;20040;-78
2023/05/07 00:33:45;;;;;;;22.40;11.07;;;;;;;9.62;100.00;97817.44;5093551;28;20442;-78
2023/05/07 00:36:11;;;;;;;20.15;11.77;;;;;;;9.58;100.00;97819.41;5093469;28;20036;-77
2023/05/07 00:38:36;;;;;;;21.55;12.35;;;;;;;9.63;100.00;97827.16;5093574;28;20038;-78
2023/05/07 00:41:02;;;;;;;16.58;10.50;;;;;;;9.69;100.00;97837.56;5110475;28;20080;-78
2023/05/07 00:43:28;;;;;;;16.85;9.35;;;;;;;9.58;100.00;97832.78;5110077;28;20059;-78
2023/05/07 00:45:54;;;;;;;16.10;9.57;;;;;;;9.50;100.00;97826.13;5093542;28;20077;-78
2023/05/07 00:48:20;;;;;;;18.27;9.70;;;;;;;9.38;100.00;97819.63;5110440;28;20053;-80
2023/05/07 00:50:46;;;;;;;14.43;8.95;;;;;;;9.38;100.00;97824.09;5093364;28;20020;-78
2023/05/07 00:53:12;;;;;;;13.63;9.48;;;;;;;9.33;100.00;97824.31;5110614;28;20079;-78
2023/05/07 00:55:38;;;;;;;16.77;10.27;;;;;;;9.40;100.00;97820.41;5110678;28;20102;-78
2023/05/07 00:58:04;;;;;;;20.20;9.55;;;;;;;9.36;100.00;97818.81;5110255;28;20433;-78
2023/05/07 01:00:30;;;;;;;19.75;9.52;;;;;;;9.34;100.00;97835.88;5093350;28;20035;-79
2023/05/07 01:02:56;;;;;;;19.20;10.15;;;;;;;9.22;100.00;97832.91;5110176;28;20027;-79
2023/05/07 01:05:23;;;;;;;16.77;9.85;;;;;;;9.26;100.00;97837.13;5110280;28;20116;-79
2023/05/07 01:07:49;;;;;;;17.85;9.88;;;;;;;9.20;100.00;97828.56;5092894;28;20034;-79
2023/05/07 01:10:15;;;;;;;17.42;8.85;;;;;;;9.18;100.00;97835.81;5093226;28;20503;-79
2023/05/07 01:12:41;;;;;;;15.00;9.68;;;;;;;9.15;100.00;97849.31;5093153;28;20020;-78
2023/05/07 01:15:08;;;;;;;15.48;9.52;;;;;;;9.02;100.00;97827.72;5110044;28;20019;-78
2023/05/07 01:17:35;;;;;;;14.90;9.23;;;;;;;9.01;100.00;97841.16;5109882;28;20147;-78
2023/05/07 01:20:01;;;;;;;17.42;10.00;;;;;;;9.04;100.00;97855.22;5092902;28;20097;-78
2023/05/07 01:22:37;;;;;;;15.57;9.63;;;;;;;8.99;100.00;97829.69;5092904;28;20019;-78
2023/05/07 01:25:03;;;;;;;15.05;9.70;;;;;;;9.01;100.00;97838.50;5092852;28;20027;-78
2023/05/07 01:27:29;;;;;;;14.55;8.65;;;;;;;9.02;100.00;97832.19;5092954;28;20730;-78
2023/05/07 01:29:55;;;;;;;15.90;9.60;;;;;;;8.99;100.00;97827.88;5109714;28;20479;-78
2023/05/07 01:32:29;;;;;;;14.80;8.88;;;;;;;9.06;100.00;97834.66;5092888;28;20024;-78
2023/05/07 01:34:55;;;;;;;17.25;8.75;;;;;;;8.91;100.00;97821.22;5092666;28;20050;-78
2023/05/07 01:37:21;;;;;;;14.75;8.85;;;;;;;8.95;100.00;97817.47;5109837;28;20028;-78
2023/05/07 01:39:47;;;;;;;18.27;9.02;;;;;;;9.02;100.00;97819.72;5092833;28;20054;-78
2023/05/07 01:42:12;;;;;;;19.45;9.57;;;;;;;9.02;100.00;97819.72;5092810;28;20023;-79
2023/05/07 01:44:38;;;;;;;17.50;9.00;;;;;;;8.95;100.00;97812.97;5092674;28;20510;-79
2023/05/07 01:47:04;;;;;;;16.40;8.60;;;;;;;8.87;100.00;97807.16;5092607;28;20549;-79
2023/05/07 01:49:30;;;;;;;14.27;9.05;;;;;;;8.93;100.00;97816.66;5109869;28;20030;-79
2023/05/07 01:51:55;;;;;;;15.57;9.43;;;;;;;8.84;100.00;97806.47;5109640;28;20072;-79
2023/05/07 01:54:28;;;;;;;13.95;8.95;;;;;;;8.80;100.00;97811.06;5093624;28;20016;-79
2023/05/07 01:56:56;;;;;;;13.80;8.48;;;;;;;8.76;100.00;97812.19;5113602;28;20055;-79
2023/05/07 01:59:21;;;;;;;22.67;9.73;;;;;;;8.76;100.00;97816.66;5096602;28;20035;-79
2023/05/07 02:01:47;;;;;;;17.35;9.93;;;;;;;8.68;100.00;97804.56;5113259;28;20023;-78
2023/05/07 02:04:13;;;;;;;14.13;9.13;;;;;;;8.78;100.00;97820.97;5096145;28;20027;-79
2023/05/07 02:06:38;;;;;;;20.67;10.07;;;;;;;8.74;100.00;97816.72;5096676;28;20019;-79
2023/05/07 02:09:04;;;;;;;17.55;10.63;;;;;;;8.75;100.00;97821.13;5113104;28;20336;-78
2023/05/07 02:11:29;;;;;;;16.95;10.05;;;;;;;8.77;100.00;97819.22;5113538;28;20031;-79
2023/05/07 02:13:55;;;;;;;20.20;9.63;;;;;;;8.76;100.00;97816.66;5096210;28;20042;-78
2023/05/07 02:16:22;;;;;;;20.50;11.77;;;;;;;8.58;100.00;97802.47;5095923;28;20500;-79
2023/05/07 02:18:47;;;;;;;19.05;11.63;;;;;;;8.61;100.00;97804.97;5113191;28;20027;-79
2023/05/07 02:21:13;;;;;;;18.55;11.00;;;;;;;8.62;100.00;97804.00;5113209;28;20111;-79
2023/05/07 02:23:38;;;;;;;18.73;9.43;;;;;;;8.59;100.00;97796.16;5112992;28;20028;-79
2023/05/07 02:26:04;;;;;;;17.27;9.32;;;;;;;8.64;100.00;97797.66;5112866;28;20027;-79
2023/05/07 02:28:30;;;;;;;14.98;9.35;;;;;;;8.53;100.00;97789.34;5095870;28;20051;-79
2023/05/07 02:30:55;;;;;;;20.55;8.93;;;;;;;8.56;100.00;97788.31;5095673;28;20050;-78
2023/05/07 02:33:21;;;;;;;15.40;9.10;;;;;;;8.55;100.00;97784.78;5095590;28;20032;-79
2023/05/07 02:35:46;;;;;;;18.45;10.00;;;;;;;8.52;100.00;97778.78;5095649;28;20468;-79
2023/05/07 02:38:12;;;;;;;16.23;9.13;;;;;;;8.51;100.00;97785.91;5112342;28;20482;-79
2023/05/07 02:40:40;;;;;;;17.92;10.57;;;;;;;8.46;100.00;97781.75;5095464;28;20016;-79
2023/05/07 02:43:06;;;;;;;15.95;9.07;;;;;;;8.50;100.00;97788.63;5095910;28;20103;-79
2023/05/07 02:45:32;;;;;;;17.83;9.48;;;;;;;8.49;100.00;97793.09;5095412;28;20462;-80
2023/05/07 02:47:58;;;;;;;17.17;9.50;;;;;;;8.53;100.00;97793.81;5095577;28;20387;-79
2023/05/07 02:50:24;;;;;;;17.13;9.82;;;;;;;8.50;100.00;97799.28;5095435;28;20028;-79
2023/05/07 02:52:49;;;;;;;25.33;11.00;;;;;;;8.41;100.00;97795.28;5095292;28;20498;-79
2023/05/07 02:55:15;;;;;;;24.42;10.32;;;;;;;8.49;100.00;97805.59;5112363;28;20031;-79
2023/05/07 02:57:40;;;;;;;23.05;11.85;;;;;;;8.48;100.00;97796.72;5095823;28;20034;-79
2023/05/07 03:00:17;;;;;;;20.52;11.35;;;;;;;8.44;100.00;97805.78;5095881;28;20048;-78
2023/05/07 03:02:43;;;;;;;28.17;12.32;;;;;;;8.42;100.00;97801.47;5112730;28;20023;-78
2023/05/07 03:05:09;;;;;;;19.63;10.95;;;;;;;8.41;100.00;97805.06;5094566;28;20130;-78
2023/05/07 03:07:36;;;;;;;21.30;11.32;;;;;;;8.33;100.00;97796.59;5090223;28;20099;-78
2023/05/07 03:10:01;;;;;;;22.42;11.77;;;;;;;8.26;100.00;97800.47;5094964;28;20042;-78
2023/05/07 03:12:27;;;;;;;18.58;11.57;;;;;;;8.14;100.00;97786.81;5094873;28;20506;-78
2023/05/07 03:14:52;;;;;;;22.15;11.52;;;;;;;8.14;100.00;97802.78;5095180;28;20062;-78
2023/05/07 03:17:18;;;;;;;21.95;12.13;;;;;;;8.12;100.00;97812.66;5111890;28;20023;-79
2023/05/07 03:19:43;;;;;;;18.55;11.38;;;;;;;8.07;100.00;97798.69;5094734;28;20024;-79
2023/05/07 03:22:09;;;;;;;21.65;10.93;;;;;;;7.92;100.00;97801.22;5094668;28;20122;-79
2023/05/07 03:24:34;;;;;;;18.80;10.57;;;;;;;7.86;100.00;97802.38;5094559;28;20470;-79
2023/05/07 03:27:00;;;;;;;19.05;10.35;;;;;;;7.90;100.00;97809.31;5111710;28;20115;-79
2023/05/07 03:29:26;;;;;;;17.50;10.45;;;;;;;7.93;100.00;97811.81;5094328;28;20027;-79
2023/05/07 03:31:52;;;;;;;20.77;11.65;;;;;;;7.86;100.00;97821.03;5094575;28;20080;-79
2023/05/07 03:34:21;;;;;;;17.17;11.27;;;;;;;7.92;100.00;97807.41;5094550;28;20490;-79
2023/05/07 03:36:48;;;;;;;26.45;11.40;;;;;;;8.08;100.00;97821.75;5111640;28;20042;-79
2023/05/07 03:39:13;;;;;;;20.42;12.05;;;;;;;8.24;100.00;97818.34;5111648;28;20029;-79
2023/05/07 03:41:39;;;;;;;23.10;11.90;;;;;;;8.36;100.00;97825.78;5094395;28;20498;-79
2023/05/07 03:44:06;;;;;;;15.20;10.75;;;;;;;8.44;100.00;97827.13;5094630;28;20138;-79
2023/05/07 03:46:32;;;;;;;22.40;11.32;;;;;;;8.59;100.00;97837.03;5094200;28;20058;-78
2023/05/07 03:48:58;;;;;;;16.58;10.63;;;;;;;8.73;100.00;97825.69;5094358;28;20088;-78
2023/05/07 03:51:24;;;;;;;24.52;11.40;;;;;;;8.85;100.00;97835.72;5111363;28;20443;-78
2023/05/07 03:53:52;;;;;;;18.60;11.43;;;;;;;8.94;100.00;97821.94;5094319;28;20030;-78
2023/05/07 03:56:18;;;;;;;24.92;11.20;;;;;;;9.03;100.00;97818.78;5107892;28;20080;-78
2023/05/07 03:58:43;;;;;;;25.25;11.23;;;;;;;9.15;100.00;97822.63;5110990;28;20394;-78
2023/05/07 04:01:09;;;;;;;19.02;10.55;;;;;;;9.14;100.00;97813.75;5111153;28;20888;-78
2023/05/07 04:03:34;;;;;;;17.98;9.90;;;;;;;9.08;100.00;97798.06;5093707;28;20110;-78
2023/05/07 04:06:00;;;;;;;26.17;12.40;;;;;;;9.09;100.00;97805.13;5094038;28;20035;-78
2023/05/07 04:08:25;;;;;;;35.95;11.20;;;;;;;9.20;100.00;97815.22;5110832;28;20023;-77
2023/05/07 04:10:55;;;;;;;23.83;12.50;;;;;;;9.32;100.00;97829.75;5093792;28;20087;-77
2023/05/07 04:13:21;;;;;;;23.80;11.68;;;;;;;9.42;100.00;97839.84;5106879;28;20019;-77
2023/05/07 04:15:48;;;;;;;39.38;12.32;;;;;;;9.45;100.00;97839.69;5093590;28;20049;-77
2023/05/07 04:18:14;;;;;;;26.15;12.50;;;;;;;9.51;100.00;97842.03;5110228;28;20096;-78
2023/05/07 04:20:39;;;;;;;21.52;12.13;;;;;;;9.66;100.00;97849.25;5093608;28;20118;-78
2023/05/07 04:23:05;;;;;;;19.00;11.15;;;;;;;9.76;100.00;97844.28;5093461;28;20077;-76
2023/05/07 04:25:30;;;;;;;20.08;11.23;;;;;;;9.76;100.00;97836.25;5110198;28;20019;-76
2023/05/07 04:27:56;;;;;;;17.38;11.10;;;;;;;9.72;100.00;97824.03;5111687;28;20027;-76
2023/05/07 04:30:22;;;;;;;20.17;10.82;;;;;;;9.67;100.00;97834.09;5110126;28;20077;-76
2023/05/07 04:32:48;;;;;;;19.85;12.13;;;;;;;9.61;100.00;97840.63;5110224;28;20028;-76
2023/05/07 04:35:14;;;;;;;45.85;15.80;;;;;;;9.67;100.00;97847.44;5093285;28;20028;-76
2023/05/07 04:37:39;;;;;;;35.58;15.90;;;;;;;9.68;100.00;97857.19;5110019;28;20027;-76
2023/05/07 04:40:07;;;;;;;21.77;12.75;;;;;;;9.70;100.00;97861.50;5093302;28;20348;-76
2023/05/07 04:42:32;;;;;;;19.13;10.95;;;;;;;9.69;100.00;97858.91;5109990;28;20034;-76
2023/05/07 04:44:58;;;;;;;18.25;11.10;;;;;;;9.70;100.00;97856.16;5110122;28;20024;-76
2023/05/07 04:47:23;;;;;;;20.33;11.02;;;;;;;9.68;100.00;97865.19;5111191;28;20019;-76
2023/05/07 04:49:49;;;;;;;18.83;11.18;;;;;;;9.81;100.00;97868.94;5092889;28;20035;-76
2023/05/07 04:52:15;;;;;;;20.00;11.93;;;;;;;9.89;100.00;97871.19;5109881;28;20051;-76
2023/05/07 04:54:40;;;;;;;17.77;11.57;;;;;;;10.07;100.00;97870.19;5106292;28;20038;-75
2023/05/07 04:57:06;;;;;;;18.98;12.15;;;;;;;10.25;100.00;97872.75;5108329;28;20031;-76
2023/05/07 04:59:32;;;;;;;17.23;10.95;;;;;;;10.44;100.00;97867.22;5093035;28;20025;-73
2023/05/07 05:01:58;;;;;;;20.40;10.85;;;;;;;10.59;100.00;97858.34;5106937;28;20020;-73
2023/05/07 05:04:23;;;;;;;19.50;10.95;;;;;;;10.78;100.00;97859.00;5090409;28;20046;-74
2023/05/07 05:06:49;;;;;;;18.30;11.23;;;;;;;10.91;100.00;97848.47;5090009;28;20023;-75
2023/05/07 05:09:15;;;;;;;15.85;10.15;;;;;;;11.05;100.00;97832.44;5090458;28;20051;-77
2023/05/07 05:11:41;;;;;;;19.13;10.60;;;;;;;11.22;100.00;97826.97;5090358;28;20395;-75
2023/05/07 05:14:07;;;;;;;16.52;10.38;;;;;;;11.42;100.00;97818.56;5090186;28;20042;-75
2023/05/07 05:16:32;;;;;;;15.88;9.85;;;;;;;11.53;100.00;97809.03;5107011;28;20110;-76
2023/05/07 05:18:58;;;;;;;17.73;10.75;;;;;;;11.63;100.00;97799.47;5089842;28;20023;-76
2023/05/07 05:21:23;;;;;;;23.33;11.63;;;;;;;11.81;100.00;97795.69;5107345;28;20487;-75
2023/05/07 05:23:49;;;;;;;16.02;10.05;;;;;;;12.70;100.00;97794.31;5089953;28;20032;-75
2023/05/07 05:26:15;;;;;;;15.32;9.35;;;;;;;14.27;100.00;97777.00;5106741;28;20024;-75
2023/05/07 05:28:40;;;;;;;14.13;8.55;;;;;;;16.12;100.00;97741.94;5106493;28;20026;-75
2023/05/07 05:31:06;;;;;;;13.27;8.00;;;;;;;16.81;100.00;97710.97;5110559;28;20123;-75
2023/05/07 05:33:31;;;;;;;11.20;7.72;;;;;;;18.08;100.00;97707.06;5093895;28;20040;-75
2023/05/07 05:35:57;;;;;;;12.40;7.43;;;;;;;19.50;100.00;97676.66;5093871;28;20039;-75
2023/05/07 05:38:22;;;;;;;9.80;7.18;;;;;;;20.78;94.19;97666.53;5111043;28;20031;-75
2023/05/07 05:40:48;;;;;;;9.82;7.30;;;;;;;20.94;87.22;97638.63;5093980;28;20083;-75
2023/05/07 05:43:14;;;;;;;10.63;7.18;;;;;;;21.45;83.67;97637.84;5093740;28;20422;-75
2023/05/07 05:45:39;;;;;;;12.55;8.02;;;;;;;22.14;76.40;97614.06;5093888;28;20058;-75
2023/05/07 05:48:05;;;;;;;10.20;7.63;;;;;;;22.95;71.78;97610.66;5093622;28;20034;-77
2023/05/07 05:50:31;;;;;;;16.73;7.63;;;;;;;23.60;66.72;97601.38;5110519;27;20035;-73
2023/05/07 05:52:57;;;;;;;10.88;7.05;;;;;;;23.98;62.61;97586.03;5096656;28;20499;-76
2023/05/07 05:55:23;;;;;;;9.80;6.75;;;;;;;24.28;61.33;97576.16;5113212;28;20023;-76
2023/05/07 05:57:48;;;;;;;15.07;7.57;;;;;;;24.95;58.87;97579.97;5113253;28;20034;-76
2023/05/07 06:00:22;;;;;;;10.23;7.13;;;;;;;25.55;54.39;97554.44;5095972;28;20035;-76
2023/05/07 06:02:48;;;;;;;12.68;9.13;;;;;;;24.60;57.07;97554.09;5113174;28;20114;-75
2023/05/07 06:05:13;;;;;;;10.73;8.82;;;;;;;24.61;56.66;97550.28;5096102;28;20469;-76
2023/05/07 06:07:39;;;;;;;13.60;7.85;;;;;;;24.95;55.59;97576.41;5113171;28;20039;-76
2023/05/07 06:10:05;;;;;;;16.58;8.32;;;;;;;25.53;53.36;97575.72;5095854;28;20062;-76
2023/05/07 06:12:31;;;;;;;11.27;7.45;;;;;;;26.13;51.11;97570.84;5095834;28;20038;-76
2023/05/07 06:14:57;;;;;;;9.38;7.18;;;;;;;26.70;49.34;97572.81;5095790;28;20028;-76
2023/05/07 06:17:22;;;;;;;10.32;7.07;;;;;;;25.92;49.32;97551.59;5095688;28;20038;-76
2023/05/07 06:19:48;;;;;;;10.35;5.80;;;;;;;26.09;49.40;97560.44;5112890;28;20824;-77
2023/05/07 06:22:13;;;;;;;9.60;6.28;;;;;;;26.12;48.94;97558.16;5095620;28;20127;-77
2023/05/07 06:24:39;;;;;;;12.63;6.32;;;;;;;26.40;47.59;97555.56;5095944;28;20031;-77
2023/05/07 06:27:04;;;;;;;9.60;7.07;;;;;;;26.92;46.98;97550.66;5112815;28;20023;-75
2023/05/07 06:29:33;;;;;;;13.38;6.88;;;;;;;26.54;47.95;97548.34;5095269;28;20479;-76
2023/05/07 06:32:09;;;;;;;18.67;8.40;;;;;;;26.97;47.14;97555.56;5096236;28;20032;-76
2023/05/07 06:34:35;;;;;;;9.20;6.93;;;;;;;25.92;50.21;97545.25;5091862;28;20034;-77
2023/05/07 06:37:01;;;;;;;22.80;7.65;;;;;;;26.26;49.81;97556.50;5112657;28;20030;-76
2023/05/07 06:39:26;;;;;;;10.52;7.28;;;;;;;27.19;47.35;97551.75;5112721;28;20027;-76
2023/05/07 06:41:52;;;;;;;13.57;8.88;;;;;;;26.53;48.34;97544.75;5112555;28;20548;-77
2023/05/07 06:44:17;;;;;;;13.88;7.15;;;;;;;26.39;50.06;97556.66;5112363;28;20115;-77
2023/05/07 06:46:43;;;;;;;11.85;7.50;;;;;;;26.60;49.90;97558.56;5095383;28;20077;-77
2023/05/07 06:49:08;;;;;;;8.57;6.28;;;;;;;26.25;50.43;97546.53;5112638;28;20470;-76
2023/05/07 06:51:34;;;;;;;20.20;7.00;;;;;;;26.05;51.22;97535.31;5112289;28;20399;-77
2023/05/07 06:53:59;;;;;;;12.68;6.70;;;;;;;26.12;51.17;97547.19;5112296;28;20027;-76
2023/05/07 06:56:25;;;;;;;8.05;5.72;;;;;;;26.28;50.79;97552.50;5094992;28;20039;-76
2023/05/07 06:58:51;;;;;;;8.73;5.30;;;;;;;27.18;47.91;97547.31;5111853;28;20032;-76
2023/05/07 07:01:16;;;;;;;8.80;6.05;;;;;;;28.21;46.00;97552.03;5094984;28;20031;-76
2023/05/07 07:03:42;;;;;;;8.00;5.35;;;;;;;28.73;43.88;97548.59;5094786;28;20427;-77
2023/05/07 07:06:07;;;;;;;14.80;6.30;;;;;;;28.85;43.70;97544.16;5094993;28;20091;-75
2023/05/07 07:08:34;;;;;;;13.00;7.22;;;;;;;29.32;43.08;97541.22;5094673;28;20023;-76
2023/05/07 07:10:59;;;;;;;8.65;5.80;;;;;;;29.20;43.09;97544.81;5095223;28;20030;-77
2023/05/07 07:13:25;;;;;;;7.05;5.05;;;;;;;29.05;43.14;97536.75;5094729;28;20027;-78
2023/05/07 07:15:51;;;;;;;8.07;4.85;;;;;;;27.89;44.30;97515.88;5094811;28;20122;-77
2023/05/07 07:18:17;;;;;;;9.80;5.40;;;;;;;28.61;43.31;97526.28;5094590;28;20388;-76
2023/05/07 07:20:44;;;;;;;10.18;5.93;;;;;;;29.42;42.41;97546.31;5094653;28;20029;-77
2023/05/07 07:23:09;;;;;;;7.78;4.78;;;;;;;29.26;41.86;97525.53;5111901;28;20407;-76
2023/05/07 07:25:35;;;;;;;7.85;5.40;;;;;;;29.50;41.73;97537.84;5094663;28;20023;-76
2023/05/07 07:28:01;;;;;;;9.48;5.63;;;;;;;30.09;40.80;97523.88;5094784;28;20023;-76
2023/05/07 07:30:26;;;;;;;308.55;24.88;;;;;;;29.40;41.34;97507.09;5112340;28;20055;-75
2023/05/07 07:32:52;;;;;;;16.00;5.80;;;;;;;26.88;45.27;97485.38;5094502;28;20031;-74
2023/05/07 07:35:18;;;;;;;6.88;5.10;;;;;;;27.71;43.76;97514.72;5094221;28;20023;-75
2023/05/07 07:37:43;;;;;;;6.45;5.00;;;;;;;26.72;45.77;97489.22;5093862;28;20072;-75
2023/05/07 07:40:10;;;;;;;9.30;5.35;;;;;;;27.41;44.94;97514.91;5111300;28;20475;-76
2023/05/07 07:42:35;;;;;;;10.23;4.80;;;;;;;29.10;42.18;97536.13;5110801;28;20123;-75
2023/05/07 07:45:01;;;;;;;9.30;6.38;;;;;;;29.95;41.33;97541.56;5110994;28;20100;-76
2023/05/07 07:47:26;;;;;;;8.35;6.38;;;;;;;30.83;40.54;97549.03;5110885;28;20070;-75
2023/05/07 07:49:52;;;;;;;11.57;6.57;;;;;;;30.98;38.99;97537.69;5093921;28;20155;-75
2023/05/07 07:52:18;;;;;;;10.02;4.80;;;;;;;30.14;37.94;97493.75;5110415;28;20047;-75
2023/05/07 07:54:47;;;;;;;9.52;5.18;;;;;;;30.15;37.89;97494.59;5110921;28;20050;-74
2023/05/07 07:57:12;;;;;;;11.77;6.50;;;;;;;29.91;39.43;97483.22;5094124;28;20035;-75
2023/05/07 07:59:38;;;;;;;7.60;5.20;;;;;;;28.96;39.22;97463.63;5093742;28;20039;-75
2023/05/07 08:02:05;;;;;;;12.65;5.70;;;;;;;28.83;40.05;97480.16;5094121;28;20502;-76
2023/05/07 08:04:32;;;;;;;27.73;8.10;;;;;;;30.12;38.23;97501.38;5093696;28;20023;-76
2023/05/07 08:06:58;;;;;;;16.25;5.95;;;;;;;30.15;38.75;97498.19;5110966;28;20023;-76
2023/05/07 08:09:23;;;;;;;75.00;16.98;;;;;;;29.66;38.76;97470.31;5093680;28;20022;-75
2023/05/07 08:11:49;;;;;;;39.03;10.02;;;;;;;29.57;38.52;97472.47;5110549;28;20023;-75
2023/05/07 08:14:15;;;;;;;10.45;4.63;;;;;;;31.34;36.32;97512.94;5110649;28;20035;-76
2023/05/07 08:16:41;;;;;;;15.55;5.63;;;;;;;32.93;34.98;97532.13;5093517;28;20039;-75
2023/05/07 08:19:06;;;;;;;9.40;4.47;;;;;;;33.08;34.64;97499.28;5110436;28;20024;-75
2023/05/07 08:21:32;;;;;;;8.70;4.40;;;;;;;32.84;35.08;97498.38;5093731;28;20019;-75
2023/05/07 08:23:58;;;;;;;30.63;21.10;;;;;;;33.02;35.04;97487.19;5089380;28;20387;-74
2023/05/07 08:26:23;;;;;;;7.40;4.35;;;;;;;32.04;35.19;97469.22;5110276;28;20410;-75
2023/05/07 08:28:49;;;;;;;9.05;3.78;;;;;;;32.41;34.92;97478.31;5093195;28;20038;-75
2023/05/07 08:31:14;;;;;;;6.18;4.55;;;;;;;33.49;34.16;97490.03;5110495;28;20495;-76
2023/05/07 08:33:40;;;;;;;6.97;4.63;;;;;;;32.68;33.71;97441.69;5093082;28;20031;-74
2023/05/07 08:36:05;;;;;;;11.00;4.35;;;;;;;32.52;34.76;97458.09;5110366;28;20082;-75
2023/05/07 08:38:31;;;;;;;7.53;4.68;;;;;;;31.89;34.58;97424.47;5110074;28;20518;-75
2023/05/07 08:40:56;;;;;;;21.85;15.70;;;;;;;32.18;35.04;97465.19;5093125;28;20039;-73
2023/05/07 08:43:25;;;;;;;7.55;4.40;;;;;;;32.60;33.72;97444.81;5110301;28;20031;-74
2023/05/07 08:45:53;;;;;;;9.55;6.45;;;;;;;32.82;33.05;97430.41;5110141;28;20027;-74
2023/05/07 08:48:22;;;;;;;9.35;5.38;;;;;;;29.94;36.42;97401.91;5110070;28;20497;-74
2023/05/07 08:50:47;;;;;;;8.20;5.10;;;;;;;31.42;35.18;97437.13;5093037;28;20031;-75
2023/05/07 08:53:13;;;;;;;13.95;4.05;;;;;;;31.10;35.32;97414.28;5110175;28;20351;-75
2023/05/07 08:55:39;;;;;;;7.03;3.97;;;;;;;30.30;35.43;97420.63;5092993;28;20406;-75
2023/05/07 08:58:05;;;;;;;6.63;4.15;;;;;;;31.26;34.48;97426.66;5110414;28;20027;-74
2023/05/07 09:00:30;;;;;;;9.18;3.88;;;;;;;31.75;33.53;97428.50;5110128;28;20040;-75
2023/05/07 09:02:56;;;;;;;5.93;3.53;;;;;;;32.93;33.35;97446.19;5109678;28;20031;-75
2023/05/07 09:05:21;;;;;;;4.47;3.75;;;;;;;31.89;33.93;97416.16;5092461;28;20032;-75
2023/05/07 09:07:47;;;;;;;7.25;3.50;;;;;;;32.67;33.07;97434.44;5109753;28;20068;-75
2023/05/07 09:10:13;;;;;;;6.85;3.40;;;;;;;32.35;34.09;97435.78;5109760;28;20407;-75
2023/05/07 09:12:39;;;;;;;4.25;3.47;;;;;;;33.36;32.03;97440.34;5109522;28;20032;-74
2023/05/07 09:15:06;;;;;;;6.05;4.22;;;;;;;32.43;32.04;97393.88;5109896;28;20019;-73
2023/05/07 09:17:31;;;;;;;9.57;3.50;;;;;;;33.76;31.74;97444.06;5109707;28;20423;-75
2023/05/07 09:20:04;;;;;;;5.50;3.80;;;;;;;34.79;29.61;97441.19;5109537;28;20032;-75
2023/05/07 09:22:32;;;;;;;10.10;3.80;;;;;;;34.90;29.88;97433.84;5093215;28;20024;-75
2023/05/07 09:24:57;;;;;;;6.00;3.10;;;;;;;35.29;28.56;97419.78;5109869;28;20051;-76
2023/05/07 09:27:23;;;;;;;10.00;3.83;;;;;;;35.58;27.72;97400.22;5109884;28;20043;-76
2023/05/07 09:29:48;;;;;;;6.22;2.83;;;;;;;37.11;26.13;97440.75;5110704;28;20075;-76
2023/05/07 09:32:14;;;;;;;4.20;2.30;;;;;;;35.59;24.98;97323.97;5109645;28;20015;-75
2023/05/07 09:34:41;;;;;;;3.25;2.63;;;;;;;36.11;26.01;97366.94;5109880;28;20022;-76
2023/05/07 09:37:07;;;;;;;5.93;2.85;;;;;;;36.97;26.08;97378.09;5109733;28;20120;-75
2023/05/07 09:39:40;;;;;;;8.55;3.65;;;;;;;36.28;26.90;97344.53;5092912;28;20103;-74
2023/05/07 09:42:06;;;;;;;6.32;4.57;;;;;;;34.51;28.36;97310.56;5092753;28;20473;-75
2023/05/07 09:44:32;;;;;;;5.60;3.58;;;;;;;33.02;29.18;97300.59;5092768;28;20119;-76
2023/05/07 09:47:00;;;;;;;10.88;4.43;;;;;;;33.71;30.14;97353.22;5109695;28;20024;-76
2023/05/07 09:49:29;;;;;;;3.92;2.97;;;;;;;33.96;29.89;97354.81;5109720;28;20038;-76
2023/05/07 09:51:56;;;;;;;4.38;3.03;;;;;;;33.09;29.49;97317.97;5109330;28;20118;-75
2023/05/07 09:54:22;;;;;;;5.30;3.63;;;;;;;34.08;29.33;97359.25;5109759;28;20062;-76
2023/05/07 09:56:48;;;;;;;7.07;3.50;;;;;;;35.01;28.20;97336.41;5109386;28;20023;-75
2023/05/07 09:59:15;;;;;;;3.53;2.65;;;;;;;34.82;28.04;97349.75;5109561;28;20509;-75
2023/05/07 10:01:42;;;;;;;3.10;2.80;;;;;;;34.93;28.41;97342.44;5110879;28;20034;-74
2023/05/07 10:04:08;;;;;;;3.92;2.75;;;;;;;35.65;27.23;97362.75;5092174;28;20028;-75
2023/05/07 10:06:37;;;;;;;4.10;2.42;;;;;;;36.69;26.30;97376.47;5092212;28;20111;-75
2023/05/07 10:09:07;;;;;;;3.65;2.70;;;;;;;38.26;25.18;97381.13;5109293;28;20038;-74
2023/05/07 10:11:36;;;;;;;6.05;2.80;;;;;;;37.89;25.16;97354.16;5092632;28;20027;-76
2023/05/07 10:14:02;;;;;;;5.43;2.90;;;;;;;38.71;24.28;97358.84;5109217;28;20106;-75
2023/05/07 10:16:35;;;;;;;7.93;3.15;;;;;;;38.21;24.99;97340.00;5095075;28;20042;-74
2023/05/07 10:19:02;;;;;;;5.35;2.78;;;;;;;36.91;25.82;97308.31;5112562;28;20038;-75
2023/05/07 10:21:30;;;;;;;3.22;2.90;;;;;;;38.03;24.99;97348.91;5112985;28;20051;-74
2023/05/07 10:24:01;;;;;;;10.63;3.08;;;;;;;36.40;25.83;97289.47;5112682;28;20098;-75
2023/05/07 10:26:28;;;;;;;6.45;3.33;;;;;;;37.05;25.79;97313.44;5112819;28;20391;-73
2023/05/07 10:28:59;;;;;;;3.67;3.10;;;;;;;36.36;25.47;97288.34;5096050;28;20111;-74
2023/05/07 10:31:50;;;;;;;5.22;3.80;;;;;;;36.80;24.90;97286.19;5095284;28;20040;-74
2023/05/07 10:34:20;;;;;;;6.15;3.10;;;;;;;37.25;23.68;97280.94;5112402;28;20384;-75
2023/05/07 10:36:46;;;;;;;5.70;3.10;;;;;;;36.18;24.50;97246.94;5112603;28;20054;-75
2023/05/07 10:39:13;;;;;;;2.90;2.70;;;;;;;36.77;24.84;97282.00;5095269;28;20066;-75
2023/05/07 10:41:39;;;;;;;3.30;2.50;;;;;;;37.08;24.83;97293.38;5095573;28;20016;-75
2023/05/07 10:44:05;;;;;;;5.82;3.03;;;;;;;36.98;24.84;97268.19;5112212;28;20027;-75
2023/05/07 10:46:34;;;;;;;3.47;3.00;;;;;;;36.72;25.57;97273.59;5112653;28;20028;-75
2023/05/07 10:49:03;;;;;;;3.70;2.55;;;;;;;37.11;23.14;97256.56;5112536;28;20475;-75
2023/05/07 10:51:31;;;;;;;7.72;4.35;;;;;;;36.07;25.29;97234.00;5113816;28;20031;-74
2023/05/07 10:54:12;;;;;;;4.20;3.00;;;;;;;36.68;25.35;97264.06;5112515;28;20020;-74
2023/05/07 10:56:44;;;;;;;;;;;;;;;36.31;25.38;97250.09;5112672;28;20031;-74
2023/05/07 10:59:27;;;;;;;3.50;2.30;;;;;;;34.61;25.65;97230.19;5095558;28;20248;-74
2023/05/07 11:02:02;;;;;;;6.32;2.85;;;;;;;37.19;23.97;97286.75;5113513;28;20494;-75
2023/05/07 11:04:27;;;;;;;5.55;2.42;;;;;;;38.09;23.57;97288.25;5112472;28;20066;-74
2023/05/07 11:07:08;;;;;;;10.05;4.25;;;;;;;37.86;24.64;97279.25;5111689;28;20023;-74
2023/05/07 11:09:52;;;;;;;3.88;3.13;;;;;;;37.85;24.15;97274.78;5105071;28;20098;-74
2023/05/07 11:12:35;;;;;;;3.53;2.90;;;;;;;39.75;22.36;97316.16;5111922;28;20028;-75
2023/05/07 11:15:08;;;;;;;6.55;2.75;;;;;;;39.65;22.23;97287.34;5112006;28;20035;-75
2023/05/07 11:17:52;;;;;;;3.80;3.28;;;;;;;39.47;22.32;97272.00;5094867;28;20042;-75
2023/05/07 11:20:18;;;;;;;13.00;3.33;;;;;;;38.36;23.36;97258.97;5094804;28;20093;-75
2023/05/07 11:22:43;;;;;;;3.78;3.00;;;;;;;37.66;23.96;97242.88;5112039;28;20023;-75